sensor_id;sensor_type;location;lat;lon;timestamp;temperature;humidity
26707;DHT22;14319;49.422;10.934;2024-01-15T00:00:49;-2.50;79.50
26707;DHT22;14319;49.422;10.934;2024-01-15T00:02:49;-2.70;78.60
26707;DHT22;14319;49.422;10.934;2024-01-15T00:04:50;-2.90;79.30
26707;DHT22;14319;49.422;10.934;2024-01-15T00:06:51;-2.80;79.30
26707;DHT22;14319;49.422;10.934;2024-01-15T00:08:51;-2.90;79.20
26707;DHT22;14319;49.422;10.934;2024-01-15T00:10:52;-3.00;79.30
26707;DHT22;14319;49.422;10.934;2024-01-15T00:12:52;-3.00;79.70
26707;DHT22;14319;49.422;10.934;2024-01-15T00:14:53;-3.00;79.90
26707;DHT22;14319;49.422;10.934;2024-01-15T00:16:54;-2.70;79.70
26707;DHT22;14319;49.422;10.934;2024-01-15T00:18:55;-2.70;79.40
26707;DHT22;14319;49.422;10.934;2024-01-15T00:20:56;-2.70;79.50
26707;DHT22;14319;49.422;10.934;2024-01-15T00:22:56;-2.60;80.20
26707;DHT22;14319;49.422;10.934;2024-01-15T00:24:57;-2.70;80.00
26707;DHT22;14319;49.422;10.934;2024-01-15T00:26:58;-3.00;80.40
26707;DHT22;14319;49.422;10.934;2024-01-15T00:28:58;-3.10;81.60
26707;DHT22;14319;49.422;10.934;2024-01-15T00:30:59;-3.00;82.60
26707;DHT22;14319;49.422;10.934;2024-01-15T00:32:59;-2.80;83.10
26707;DHT22;14319;49.422;10.934;2024-01-15T00:35:00;-3.00;81.70
26707;DHT22;14319;49.422;10.934;2024-01-15T00:37:00;-3.10;81.70
26707;DHT22;14319;49.422;10.934;2024-01-15T00:39:01;-3.10;81.90
26707;DHT22;14319;49.422;10.934;2024-01-15T00:41:02;-3.10;82.00
26707;DHT22;14319;49.422;10.934;2024-01-15T00:43:03;-2.80;82.70
26707;DHT22;14319;49.422;10.934;2024-01-15T00:45:04;-2.80;81.70
26707;DHT22;14319;49.422;10.934;2024-01-15T00:47:07;-2.80;80.90
26707;DHT22;14319;49.422;10.934;2024-01-15T00:49:07;-2.80;81.70
26707;DHT22;14319;49.422;10.934;2024-01-15T00:51:08;-2.80;81.10
26707;DHT22;14319;49.422;10.934;2024-01-15T00:53:08;-2.80;80.90
26707;DHT22;14319;49.422;10.934;2024-01-15T00:55:09;-2.80;81.80
26707;DHT22;14319;49.422;10.934;2024-01-15T00:57:10;-2.60;81.90
26707;DHT22;14319;49.422;10.934;2024-01-15T00:59:10;-2.70;81.30
26707;DHT22;14319;49.422;10.934;2024-01-15T01:01:15;-2.80;81.80
26707;DHT22;14319;49.422;10.934;2024-01-15T01:03:15;-2.80;82.20
26707;DHT22;14319;49.422;10.934;2024-01-15T01:05:16;-2.70;82.40
26707;DHT22;14319;49.422;10.934;2024-01-15T01:07:16;-2.70;81.50
26707;DHT22;14319;49.422;10.934;2024-01-15T01:09:17;-2.80;82.40
26707;DHT22;14319;49.422;10.934;2024-01-15T01:11:18;-2.90;83.10
26707;DHT22;14319;49.422;10.934;2024-01-15T01:13:18;-2.80;84.20
26707;DHT22;14319;49.422;10.934;2024-01-15T01:15:19;-2.90;83.30
26707;DHT22;14319;49.422;10.934;2024-01-15T01:17:20;-2.80;83.50
26707;DHT22;14319;49.422;10.934;2024-01-15T01:19:21;-2.90;83.60
26707;DHT22;14319;49.422;10.934;2024-01-15T01:21:21;-2.80;83.70
26707;DHT22;14319;49.422;10.934;2024-01-15T01:23:22;-2.90;83.90
26707;DHT22;14319;49.422;10.934;2024-01-15T01:25:22;-2.70;84.20
26707;DHT22;14319;49.422;10.934;2024-01-15T01:27:23;-2.60;82.80
26707;DHT22;14319;49.422;10.934;2024-01-15T01:29:24;-2.70;83.10
26707;DHT22;14319;49.422;10.934;2024-01-15T01:31:24;-2.80;83.80
26707;DHT22;14319;49.422;10.934;2024-01-15T01:33:25;-2.70;83.90
26707;DHT22;14319;49.422;10.934;2024-01-15T01:35:25;-2.60;83.40
26707;DHT22;14319;49.422;10.934;2024-01-15T01:37:26;-2.70;84.00
26707;DHT22;14319;49.422;10.934;2024-01-15T01:39:27;-2.80;84.10
26707;DHT22;14319;49.422;10.934;2024-01-15T01:41:27;-2.70;84.10
26707;DHT22;14319;49.422;10.934;2024-01-15T01:43:28;-2.70;83.70
26707;DHT22;14319;49.422;10.934;2024-01-15T01:45:28;-2.70;84.20
26707;DHT22;14319;49.422;10.934;2024-01-15T01:47:29;-2.70;84.30
26707;DHT22;14319;49.422;10.934;2024-01-15T01:49:30;-2.60;84.30
26707;DHT22;14319;49.422;10.934;2024-01-15T01:51:31;-2.60;84.80
26707;DHT22;14319;49.422;10.934;2024-01-15T01:53:34;-2.60;84.60
26707;DHT22;14319;49.422;10.934;2024-01-15T01:55:36;-2.60;84.90
26707;DHT22;14319;49.422;10.934;2024-01-15T01:57:38;-2.60;85.20
26707;DHT22;14319;49.422;10.934;2024-01-15T01:59:39;-2.60;86.00
26707;DHT22;14319;49.422;10.934;2024-01-15T02:01:41;-2.50;86.40
26707;DHT22;14319;49.422;10.934;2024-01-15T02:03:43;-2.50;87.50
26707;DHT22;14319;49.422;10.934;2024-01-15T02:05:43;-2.50;88.30
26707;DHT22;14319;49.422;10.934;2024-01-15T02:07:47;-2.50;87.90
26707;DHT22;14319;49.422;10.934;2024-01-15T02:09:48;-2.50;87.10
26707;DHT22;14319;49.422;10.934;2024-01-15T02:11:49;-2.40;87.40
26707;DHT22;14319;49.422;10.934;2024-01-15T02:13:50;-2.30;86.90
26707;DHT22;14319;49.422;10.934;2024-01-15T02:15:51;-2.20;87.60
26707;DHT22;14319;49.422;10.934;2024-01-15T02:18:01;-2.20;87.00
26707;DHT22;14319;49.422;10.934;2024-01-15T02:20:02;-2.10;87.20
26707;DHT22;14319;49.422;10.934;2024-01-15T02:22:03;-2.10;86.00
26707;DHT22;14319;49.422;10.934;2024-01-15T02:24:04;-2.20;85.30
26707;DHT22;14319;49.422;10.934;2024-01-15T02:26:05;-2.40;86.40
26707;DHT22;14319;49.422;10.934;2024-01-15T02:28:07;-2.50;85.70
26707;DHT22;14319;49.422;10.934;2024-01-15T02:30:08;-2.50;86.40
26707;DHT22;14319;49.422;10.934;2024-01-15T02:32:10;-2.40;86.70
26707;DHT22;14319;49.422;10.934;2024-01-15T02:34:11;-2.40;86.20
26707;DHT22;14319;49.422;10.934;2024-01-15T02:36:11;-2.50;87.10
26707;DHT22;14319;49.422;10.934;2024-01-15T02:38:12;-2.50;87.20
26707;DHT22;14319;49.422;10.934;2024-01-15T02:40:13;-2.40;88.50
26707;DHT22;14319;49.422;10.934;2024-01-15T02:42:13;-2.50;87.70
26707;DHT22;14319;49.422;10.934;2024-01-15T02:44:14;-2.40;87.50
26707;DHT22;14319;49.422;10.934;2024-01-15T02:46:14;-2.20;88.30
26707;DHT22;14319;49.422;10.934;2024-01-15T02:48:16;-2.20;87.40
26707;DHT22;14319;49.422;10.934;2024-01-15T02:50:17;-2.20;86.60
26707;DHT22;14319;49.422;10.934;2024-01-15T02:52:17;-2.30;87.60
26707;DHT22;14319;49.422;10.934;2024-01-15T02:54:18;-2.30;88.70
26707;DHT22;14319;49.422;10.934;2024-01-15T02:56:19;-2.20;90.00
26707;DHT22;14319;49.422;10.934;2024-01-15T02:58:19;-2.20;89.90
26707;DHT22;14319;49.422;10.934;2024-01-15T03:00:20;-2.40;90.80
26707;DHT22;14319;49.422;10.934;2024-01-15T03:02:21;-2.50;92.10
26707;DHT22;14319;49.422;10.934;2024-01-15T03:04:21;-2.40;93.40
26707;DHT22;14319;49.422;10.934;2024-01-15T03:06:22;-2.30;92.60
26707;DHT22;14319;49.422;10.934;2024-01-15T03:08:22;-2.30;92.20
26707;DHT22;14319;49.422;10.934;2024-01-15T03:10:23;-2.30;91.30
26707;DHT22;14319;49.422;10.934;2024-01-15T03:12:23;-2.40;91.40
26707;DHT22;14319;49.422;10.934;2024-01-15T03:14:24;-2.30;91.00
26707;DHT22;14319;49.422;10.934;2024-01-15T03:16:26;-2.20;90.10
26707;DHT22;14319;49.422;10.934;2024-01-15T03:18:27;-2.20;89.70
26707;DHT22;14319;49.422;10.934;2024-01-15T03:20:27;-2.20;89.40
26707;DHT22;14319;49.422;10.934;2024-01-15T03:22:28;-2.30;89.10
26707;DHT22;14319;49.422;10.934;2024-01-15T03:24:29;-2.30;91.10
26707;DHT22;14319;49.422;10.934;2024-01-15T03:26:29;-2.30;90.50
26707;DHT22;14319;49.422;10.934;2024-01-15T03:28:30;-2.20;90.40
26707;DHT22;14319;49.422;10.934;2024-01-15T03:30:31;-2.10;90.10
26707;DHT22;14319;49.422;10.934;2024-01-15T03:32:31;-2.10;88.90
26707;DHT22;14319;49.422;10.934;2024-01-15T03:34:32;-2.10;89.60
26707;DHT22;14319;49.422;10.934;2024-01-15T03:36:32;-2.10;89.50
26707;DHT22;14319;49.422;10.934;2024-01-15T03:38:33;-2.10;90.00
26707;DHT22;14319;49.422;10.934;2024-01-15T03:40:34;-2.10;89.70
26707;DHT22;14319;49.422;10.934;2024-01-15T03:42:34;-2.10;89.10
26707;DHT22;14319;49.422;10.934;2024-01-15T03:44:35;-2.10;88.70
26707;DHT22;14319;49.422;10.934;2024-01-15T03:46:35;-2.10;89.10
26707;DHT22;14319;49.422;10.934;2024-01-15T03:48:36;-2.10;89.20
26707;DHT22;14319;49.422;10.934;2024-01-15T03:50:37;-2.00;90.20
26707;DHT22;14319;49.422;10.934;2024-01-15T03:52:37;-2.00;89.40
26707;DHT22;14319;49.422;10.934;2024-01-15T03:54:38;-2.00;90.80
26707;DHT22;14319;49.422;10.934;2024-01-15T03:56:39;-2.00;89.60
26707;DHT22;14319;49.422;10.934;2024-01-15T03:58:39;-2.10;90.30
26707;DHT22;14319;49.422;10.934;2024-01-15T04:00:40;-2.10;89.60
26707;DHT22;14319;49.422;10.934;2024-01-15T04:02:41;-2.00;89.80
26707;DHT22;14319;49.422;10.934;2024-01-15T04:04:43;-1.90;90.30
26707;DHT22;14319;49.422;10.934;2024-01-15T04:06:43;-1.80;90.70
26707;DHT22;14319;49.422;10.934;2024-01-15T04:08:44;-1.60;89.50
26707;DHT22;14319;49.422;10.934;2024-01-15T04:10:44;-1.90;90.00
26707;DHT22;14319;49.422;10.934;2024-01-15T04:12:45;-1.80;89.50
26707;DHT22;14319;49.422;10.934;2024-01-15T04:14:46;-1.80;88.20
26707;DHT22;14319;49.422;10.934;2024-01-15T04:16:47;-1.70;89.50
26707;DHT22;14319;49.422;10.934;2024-01-15T04:18:47;-1.90;87.50
26707;DHT22;14319;49.422;10.934;2024-01-15T04:20:48;-2.00;88.50
26707;DHT22;14319;49.422;10.934;2024-01-15T04:22:48;-2.10;88.80
26707;DHT22;14319;49.422;10.934;2024-01-15T04:24:49;-2.10;89.70
26707;DHT22;14319;49.422;10.934;2024-01-15T04:26:50;-2.10;90.00
26707;DHT22;14319;49.422;10.934;2024-01-15T04:28:50;-2.10;89.90
26707;DHT22;14319;49.422;10.934;2024-01-15T04:30:51;-2.00;91.10
26707;DHT22;14319;49.422;10.934;2024-01-15T04:32:51;-2.00;90.80
26707;DHT22;14319;49.422;10.934;2024-01-15T04:34:52;-1.90;89.50
26707;DHT22;14319;49.422;10.934;2024-01-15T04:36:52;-1.90;89.00
26707;DHT22;14319;49.422;10.934;2024-01-15T04:38:53;-1.90;89.30
26707;DHT22;14319;49.422;10.934;2024-01-15T04:40:53;-1.80;89.50
26707;DHT22;14319;49.422;10.934;2024-01-15T04:42:54;-1.80;89.30
26707;DHT22;14319;49.422;10.934;2024-01-15T04:44:55;-1.70;89.10
26707;DHT22;14319;49.422;10.934;2024-01-15T04:46:55;-1.80;88.60
26707;DHT22;14319;49.422;10.934;2024-01-15T04:48:56;-1.70;88.60
26707;DHT22;14319;49.422;10.934;2024-01-15T04:50:57;-1.80;88.50
26707;DHT22;14319;49.422;10.934;2024-01-15T04:52:57;-1.80;87.90
26707;DHT22;14319;49.422;10.934;2024-01-15T04:54:58;-1.80;88.80
26707;DHT22;14319;49.422;10.934;2024-01-15T04:56:58;-1.70;88.60
26707;DHT22;14319;49.422;10.934;2024-01-15T04:58:59;-1.70;88.50
26707;DHT22;14319;49.422;10.934;2024-01-15T05:01:00;-1.60;87.60
26707;DHT22;14319;49.422;10.934;2024-01-15T05:03:00;-1.40;87.70
26707;DHT22;14319;49.422;10.934;2024-01-15T05:05:01;-1.50;86.20
26707;DHT22;14319;49.422;10.934;2024-01-15T05:07:01;-1.40;86.30
26707;DHT22;14319;49.422;10.934;2024-01-15T05:09:02;-1.20;87.30
26707;DHT22;14319;49.422;10.934;2024-01-15T05:11:04;-1.40;87.30
26707;DHT22;14319;49.422;10.934;2024-01-15T05:13:04;-1.40;86.60
26707;DHT22;14319;49.422;10.934;2024-01-15T05:15:05;-1.40;86.60
26707;DHT22;14319;49.422;10.934;2024-01-15T05:17:06;-1.30;86.20
26707;DHT22;14319;49.422;10.934;2024-01-15T05:19:07;-1.50;85.80
26707;DHT22;14319;49.422;10.934;2024-01-15T05:21:09;-1.40;87.30
26707;DHT22;14319;49.422;10.934;2024-01-15T05:23:09;-1.50;86.50
26707;DHT22;14319;49.422;10.934;2024-01-15T05:25:10;-1.60;85.90
26707;DHT22;14319;49.422;10.934;2024-01-15T05:27:11;-1.50;86.50
26707;DHT22;14319;49.422;10.934;2024-01-15T05:29:11;-1.50;85.90
26707;DHT22;14319;49.422;10.934;2024-01-15T05:31:12;-1.50;86.40
26707;DHT22;14319;49.422;10.934;2024-01-15T05:33:12;-1.40;86.10
26707;DHT22;14319;49.422;10.934;2024-01-15T05:35:13;-1.40;87.00
26707;DHT22;14319;49.422;10.934;2024-01-15T05:37:13;-1.40;86.30
26707;DHT22;14319;49.422;10.934;2024-01-15T05:39:14;-1.40;86.30
26707;DHT22;14319;49.422;10.934;2024-01-15T05:41:15;-1.50;85.90
26707;DHT22;14319;49.422;10.934;2024-01-15T05:43:15;-1.60;86.50
26707;DHT22;14319;49.422;10.934;2024-01-15T05:45:16;-1.40;87.10
26707;DHT22;14319;49.422;10.934;2024-01-15T05:47:17;-1.40;86.90
26707;DHT22;14319;49.422;10.934;2024-01-15T05:49:18;-1.40;87.00
26707;DHT22;14319;49.422;10.934;2024-01-15T05:51:18;-1.20;86.50
26707;DHT22;14319;49.422;10.934;2024-01-15T05:53:19;-1.30;85.80
26707;DHT22;14319;49.422;10.934;2024-01-15T05:55:19;-1.40;85.70
26707;DHT22;14319;49.422;10.934;2024-01-15T05:57:20;-1.40;86.20
26707;DHT22;14319;49.422;10.934;2024-01-15T05:59:21;-1.20;86.10
26707;DHT22;14319;49.422;10.934;2024-01-15T06:01:21;-1.20;86.20
26707;DHT22;14319;49.422;10.934;2024-01-15T06:03:22;-1.20;86.10
26707;DHT22;14319;49.422;10.934;2024-01-15T06:05:22;-1.30;87.10
26707;DHT22;14319;49.422;10.934;2024-01-15T06:07:23;-1.20;86.50
26707;DHT22;14319;49.422;10.934;2024-01-15T06:09:32;-1.30;86.30
26707;DHT22;14319;49.422;10.934;2024-01-15T06:11:33;-1.40;87.50
26707;DHT22;14319;49.422;10.934;2024-01-15T06:13:33;-1.40;87.40
26707;DHT22;14319;49.422;10.934;2024-01-15T06:15:34;-1.50;87.30
26707;DHT22;14319;49.422;10.934;2024-01-15T06:17:35;-1.50;88.20
26707;DHT22;14319;49.422;10.934;2024-01-15T06:19:36;-1.50;88.60
26707;DHT22;14319;49.422;10.934;2024-01-15T06:21:36;-1.50;89.70
26707;DHT22;14319;49.422;10.934;2024-01-15T06:23:37;-1.60;89.70
26707;DHT22;14319;49.422;10.934;2024-01-15T06:25:40;-1.40;89.70
26707;DHT22;14319;49.422;10.934;2024-01-15T06:27:41;-1.20;88.50
26707;DHT22;14319;49.422;10.934;2024-01-15T06:29:45;-1.40;89.00
26707;DHT22;14319;49.422;10.934;2024-01-15T06:31:52;-1.40;89.50
26707;DHT22;14319;49.422;10.934;2024-01-15T06:33:52;-1.50;90.10
26707;DHT22;14319;49.422;10.934;2024-01-15T06:35:53;-1.50;91.50
26707;DHT22;14319;49.422;10.934;2024-01-15T06:37:53;-1.60;92.70
26707;DHT22;14319;49.422;10.934;2024-01-15T06:39:54;-1.50;93.80
26707;DHT22;14319;49.422;10.934;2024-01-15T06:41:54;-1.50;92.40
26707;DHT22;14319;49.422;10.934;2024-01-15T06:43:55;-1.50;90.50
26707;DHT22;14319;49.422;10.934;2024-01-15T06:45:56;-1.40;91.10
26707;DHT22;14319;49.422;10.934;2024-01-15T06:47:56;-1.40;90.70
26707;DHT22;14319;49.422;10.934;2024-01-15T06:49:57;-1.40;91.00
26707;DHT22;14319;49.422;10.934;2024-01-15T06:51:57;-1.50;91.10
26707;DHT22;14319;49.422;10.934;2024-01-15T06:53:58;-1.40;91.90
26707;DHT22;14319;49.422;10.934;2024-01-15T06:55:59;-1.30;91.80
26707;DHT22;14319;49.422;10.934;2024-01-15T06:57:59;-1.30;90.50
26707;DHT22;14319;49.422;10.934;2024-01-15T07:00:00;-1.20;91.90
26707;DHT22;14319;49.422;10.934;2024-01-15T07:02:01;-1.10;90.30
26707;DHT22;14319;49.422;10.934;2024-01-15T07:04:02;-1.10;89.40
26707;DHT22;14319;49.422;10.934;2024-01-15T07:06:02;-1.20;88.10
26707;DHT22;14319;49.422;10.934;2024-01-15T07:08:03;-1.10;89.90
26707;DHT22;14319;49.422;10.934;2024-01-15T07:10:05;-1.20;91.30
26707;DHT22;14319;49.422;10.934;2024-01-15T07:12:06;-1.30;93.20
26707;DHT22;14319;49.422;10.934;2024-01-15T07:14:07;-1.30;95.90
26707;DHT22;14319;49.422;10.934;2024-01-15T07:16:07;-1.40;96.30
26707;DHT22;14319;49.422;10.934;2024-01-15T07:18:08;-1.40;96.90
26707;DHT22;14319;49.422;10.934;2024-01-15T07:20:09;-1.40;97.70
26707;DHT22;14319;49.422;10.934;2024-01-15T07:22:10;-1.40;96.50
26707;DHT22;14319;49.422;10.934;2024-01-15T07:24:10;-1.40;97.40
26707;DHT22;14319;49.422;10.934;2024-01-15T07:26:11;-1.50;97.20
26707;DHT22;14319;49.422;10.934;2024-01-15T07:28:12;-1.50;97.10
26707;DHT22;14319;49.422;10.934;2024-01-15T07:30:13;-1.50;97.40
26707;DHT22;14319;49.422;10.934;2024-01-15T07:32:13;-1.40;97.30
26707;DHT22;14319;49.422;10.934;2024-01-15T07:34:14;-1.30;96.30
26707;DHT22;14319;49.422;10.934;2024-01-15T07:36:15;-1.30;94.20
26707;DHT22;14319;49.422;10.934;2024-01-15T07:38:15;-1.40;94.60
26707;DHT22;14319;49.422;10.934;2024-01-15T07:40:16;-1.10;93.70
26707;DHT22;14319;49.422;10.934;2024-01-15T07:42:17;-1.30;93.90
26707;DHT22;14319;49.422;10.934;2024-01-15T07:44:17;-1.30;94.30
26707;DHT22;14319;49.422;10.934;2024-01-15T07:46:18;-1.30;96.50
26707;DHT22;14319;49.422;10.934;2024-01-15T07:48:18;-1.40;95.80
26707;DHT22;14319;49.422;10.934;2024-01-15T07:50:19;-1.30;96.00
26707;DHT22;14319;49.422;10.934;2024-01-15T07:52:20;-1.20;93.10
26707;DHT22;14319;49.422;10.934;2024-01-15T07:54:20;-1.20;94.50
26707;DHT22;14319;49.422;10.934;2024-01-15T07:56:21;-1.30;93.50
26707;DHT22;14319;49.422;10.934;2024-01-15T07:58:22;-1.20;92.70
26707;DHT22;14319;49.422;10.934;2024-01-15T08:00:22;-1.10;92.00
26707;DHT22;14319;49.422;10.934;2024-01-15T08:02:23;-1.10;91.20
26707;DHT22;14319;49.422;10.934;2024-01-15T08:04:23;-1.10;91.10
26707;DHT22;14319;49.422;10.934;2024-01-15T08:06:24;-1.10;90.30
26707;DHT22;14319;49.422;10.934;2024-01-15T08:08:25;-1.10;90.30
26707;DHT22;14319;49.422;10.934;2024-01-15T08:10:26;-1.10;90.00
26707;DHT22;14319;49.422;10.934;2024-01-15T08:12:27;-1.10;90.10
26707;DHT22;14319;49.422;10.934;2024-01-15T08:14:27;-1.10;91.10
26707;DHT22;14319;49.422;10.934;2024-01-15T08:16:28;-1.00;90.00
26707;DHT22;14319;49.422;10.934;2024-01-15T08:18:28;-1.00;89.90
26707;DHT22;14319;49.422;10.934;2024-01-15T08:20:29;-0.90;91.30
26707;DHT22;14319;49.422;10.934;2024-01-15T08:22:29;-1.00;89.60
26707;DHT22;14319;49.422;10.934;2024-01-15T08:24:30;-1.00;90.00
26707;DHT22;14319;49.422;10.934;2024-01-15T08:26:32;-1.10;90.70
26707;DHT22;14319;49.422;10.934;2024-01-15T08:28:32;-1.10;89.70
26707;DHT22;14319;49.422;10.934;2024-01-15T08:30:33;-1.10;89.90
26707;DHT22;14319;49.422;10.934;2024-01-15T08:32:34;-1.10;90.60
26707;DHT22;14319;49.422;10.934;2024-01-15T08:34:37;-1.10;90.40
26707;DHT22;14319;49.422;10.934;2024-01-15T08:36:38;-1.00;90.40
26707;DHT22;14319;49.422;10.934;2024-01-15T08:38:38;-0.90;91.50
26707;DHT22;14319;49.422;10.934;2024-01-15T08:40:39;-0.90;89.30
26707;DHT22;14319;49.422;10.934;2024-01-15T08:42:40;-0.80;90.10
26707;DHT22;14319;49.422;10.934;2024-01-15T08:44:40;-0.80;89.80
26707;DHT22;14319;49.422;10.934;2024-01-15T08:46:43;-0.70;90.30
26707;DHT22;14319;49.422;10.934;2024-01-15T08:48:44;-0.60;89.70
26707;DHT22;14319;49.422;10.934;2024-01-15T08:50:47;-0.70;88.60
26707;DHT22;14319;49.422;10.934;2024-01-15T08:52:47;-0.60;89.00
26707;DHT22;14319;49.422;10.934;2024-01-15T08:54:48;-0.70;89.80
26707;DHT22;14319;49.422;10.934;2024-01-15T08:56:49;-0.70;89.60
26707;DHT22;14319;49.422;10.934;2024-01-15T08:58:49;-0.70;89.20
26707;DHT22;14319;49.422;10.934;2024-01-15T09:00:50;-0.60;89.50
26707;DHT22;14319;49.422;10.934;2024-01-15T09:02:51;-0.60;88.90
26707;DHT22;14319;49.422;10.934;2024-01-15T09:04:52;-0.70;89.00
26707;DHT22;14319;49.422;10.934;2024-01-15T09:06:52;-0.80;89.10
26707;DHT22;14319;49.422;10.934;2024-01-15T09:08:53;-0.80;90.30
26707;DHT22;14319;49.422;10.934;2024-01-15T09:10:53;-0.80;91.10
26707;DHT22;14319;49.422;10.934;2024-01-15T09:12:54;-0.80;91.20
26707;DHT22;14319;49.422;10.934;2024-01-15T09:14:55;-0.70;91.60
26707;DHT22;14319;49.422;10.934;2024-01-15T09:16:56;-0.80;93.70
26707;DHT22;14319;49.422;10.934;2024-01-15T09:18:57;-0.80;93.00
26707;DHT22;14319;49.422;10.934;2024-01-15T09:20:58;-0.90;93.80
26707;DHT22;14319;49.422;10.934;2024-01-15T09:22:58;-0.90;94.20
26707;DHT22;14319;49.422;10.934;2024-01-15T09:24:59;-0.90;93.10
26707;DHT22;14319;49.422;10.934;2024-01-15T09:27:00;-0.80;91.50
26707;DHT22;14319;49.422;10.934;2024-01-15T09:29:00;-0.70;92.40
26707;DHT22;14319;49.422;10.934;2024-01-15T09:31:01;-0.70;90.90
26707;DHT22;14319;49.422;10.934;2024-01-15T09:33:02;-0.60;91.50
26707;DHT22;14319;49.422;10.934;2024-01-15T09:35:02;-0.60;90.60
26707;DHT22;14319;49.422;10.934;2024-01-15T09:37:03;-0.60;89.50
26707;DHT22;14319;49.422;10.934;2024-01-15T09:39:04;-0.50;88.20
26707;DHT22;14319;49.422;10.934;2024-01-15T09:41:06;-0.60;89.80
26707;DHT22;14319;49.422;10.934;2024-01-15T09:43:07;-0.50;89.80
26707;DHT22;14319;49.422;10.934;2024-01-15T09:45:08;-0.50;88.20
26707;DHT22;14319;49.422;10.934;2024-01-15T09:47:10;-0.40;90.00
26707;DHT22;14319;49.422;10.934;2024-01-15T09:49:11;-0.40;87.90
26707;DHT22;14319;49.422;10.934;2024-01-15T09:51:11;-0.50;89.10
26707;DHT22;14319;49.422;10.934;2024-01-15T09:53:14;-0.40;89.90
26707;DHT22;14319;49.422;10.934;2024-01-15T09:55:15;-0.30;89.30
26707;DHT22;14319;49.422;10.934;2024-01-15T09:57:16;-0.30;88.20
26707;DHT22;14319;49.422;10.934;2024-01-15T09:59:18;-0.40;88.40
26707;DHT22;14319;49.422;10.934;2024-01-15T10:01:20;-0.40;88.60
26707;DHT22;14319;49.422;10.934;2024-01-15T10:03:21;-0.50;88.10
26707;DHT22;14319;49.422;10.934;2024-01-15T10:05:22;-0.40;88.40
26707;DHT22;14319;49.422;10.934;2024-01-15T10:07:23;-0.50;89.20
26707;DHT22;14319;49.422;10.934;2024-01-15T10:09:26;-0.50;87.60
26707;DHT22;14319;49.422;10.934;2024-01-15T10:11:27;-0.30;88.60
26707;DHT22;14319;49.422;10.934;2024-01-15T10:13:28;-0.40;88.00
26707;DHT22;14319;49.422;10.934;2024-01-15T10:15:37;-0.30;89.40
26707;DHT22;14319;49.422;10.934;2024-01-15T10:17:39;-0.40;90.00
26707;DHT22;14319;49.422;10.934;2024-01-15T10:19:39;-0.40;92.60
26707;DHT22;14319;49.422;10.934;2024-01-15T10:21:41;-0.40;91.90
26707;DHT22;14319;49.422;10.934;2024-01-15T10:23:42;-0.50;91.50
26707;DHT22;14319;49.422;10.934;2024-01-15T10:25:43;-0.50;92.10
26707;DHT22;14319;49.422;10.934;2024-01-15T10:27:43;-0.50;90.70
26707;DHT22;14319;49.422;10.934;2024-01-15T10:29:44;-0.60;92.30
26707;DHT22;14319;49.422;10.934;2024-01-15T10:31:44;-0.60;93.30
26707;DHT22;14319;49.422;10.934;2024-01-15T10:33:45;-0.60;93.60
26707;DHT22;14319;49.422;10.934;2024-01-15T10:35:46;-0.50;94.00
26707;DHT22;14319;49.422;10.934;2024-01-15T10:37:47;-0.50;92.80
26707;DHT22;14319;49.422;10.934;2024-01-15T10:39:47;-0.40;91.80
26707;DHT22;14319;49.422;10.934;2024-01-15T10:41:49;-0.40;92.30
26707;DHT22;14319;49.422;10.934;2024-01-15T10:43:51;-0.30;91.90
26707;DHT22;14319;49.422;10.934;2024-01-15T10:45:51;-0.40;90.20
26707;DHT22;14319;49.422;10.934;2024-01-15T10:47:54;-0.30;91.70
26707;DHT22;14319;49.422;10.934;2024-01-15T10:49:55;-0.40;90.10
26707;DHT22;14319;49.422;10.934;2024-01-15T10:51:56;-0.40;91.40
26707;DHT22;14319;49.422;10.934;2024-01-15T10:53:57;-0.30;91.10
26707;DHT22;14319;49.422;10.934;2024-01-15T10:56:00;-0.20;91.00
26707;DHT22;14319;49.422;10.934;2024-01-15T10:58:02;-0.20;90.00
26707;DHT22;14319;49.422;10.934;2024-01-15T11:00:04;-0.10;90.60
26707;DHT22;14319;49.422;10.934;2024-01-15T11:02:06;-0.20;89.10
26707;DHT22;14319;49.422;10.934;2024-01-15T11:04:07;-0.30;89.00
26707;DHT22;14319;49.422;10.934;2024-01-15T11:06:17;-0.30;91.40
26707;DHT22;14319;49.422;10.934;2024-01-15T11:08:21;-0.10;90.30
26707;DHT22;14319;49.422;10.934;2024-01-15T11:10:44;-0.30;92.00
26707;DHT22;14319;49.422;10.934;2024-01-15T11:12:50;-0.30;90.40
26707;DHT22;14319;49.422;10.934;2024-01-15T11:14:51;-0.30;90.60
26707;DHT22;14319;49.422;10.934;2024-01-15T11:16:56;-0.30;91.10
26707;DHT22;14319;49.422;10.934;2024-01-15T11:25:44;-0.40;92.10
26707;DHT22;14319;49.422;10.934;2024-01-15T11:27:50;-0.40;93.10
26707;DHT22;14319;49.422;10.934;2024-01-15T11:30:04;-0.40;90.80
26707;DHT22;14319;49.422;10.934;2024-01-15T11:32:09;-0.40;91.90
26707;DHT22;14319;49.422;10.934;2024-01-15T11:34:10;-0.30;91.00
26707;DHT22;14319;49.422;10.934;2024-01-15T11:36:11;-0.40;90.30
26707;DHT22;14319;49.422;10.934;2024-01-15T11:38:12;-0.30;92.10
26707;DHT22;14319;49.422;10.934;2024-01-15T11:42:36;-0.30;92.60
26707;DHT22;14319;49.422;10.934;2024-01-15T11:44:37;-0.30;90.70
26707;DHT22;14319;49.422;10.934;2024-01-15T11:46:49;-0.20;92.40
26707;DHT22;14319;49.422;10.934;2024-01-15T11:48:59;-0.10;91.60
26707;DHT22;14319;49.422;10.934;2024-01-15T11:51:03;-0.10;90.80
26707;DHT22;14319;49.422;10.934;2024-01-15T11:53:11;-0.10;92.40
26707;DHT22;14319;49.422;10.934;2024-01-15T11:55:19;0.00;91.60
26707;DHT22;14319;49.422;10.934;2024-01-15T11:57:29;-0.10;90.80
26707;DHT22;14319;49.422;10.934;2024-01-15T11:59:33;0.00;92.50
26707;DHT22;14319;49.422;10.934;2024-01-15T12:01:35;0.00;90.70
26707;DHT22;14319;49.422;10.934;2024-01-15T12:03:35;-0.10;92.40
26707;DHT22;14319;49.422;10.934;2024-01-15T12:05:37;0.00;92.60
26707;DHT22;14319;49.422;10.934;2024-01-15T12:07:42;-0.10;92.20
26707;DHT22;14319;49.422;10.934;2024-01-15T12:09:44;-0.10;93.70
26707;DHT22;14319;49.422;10.934;2024-01-15T12:11:51;-0.10;93.10
26707;DHT22;14319;49.422;10.934;2024-01-15T12:13:51;0.00;93.80
26707;DHT22;14319;49.422;10.934;2024-01-15T12:15:54;-0.10;93.30
26707;DHT22;14319;49.422;10.934;2024-01-15T12:17:59;-0.10;94.10
26707;DHT22;14319;49.422;10.934;2024-01-15T12:20:01;-0.10;94.40
26707;DHT22;14319;49.422;10.934;2024-01-15T12:22:01;-0.10;95.10
26707;DHT22;14319;49.422;10.934;2024-01-15T12:24:02;-0.20;94.90
26707;DHT22;14319;49.422;10.934;2024-01-15T12:26:03;-0.20;94.70
26707;DHT22;14319;49.422;10.934;2024-01-15T12:28:04;-0.10;94.60
26707;DHT22;14319;49.422;10.934;2024-01-15T12:30:05;0.00;95.10
26707;DHT22;14319;49.422;10.934;2024-01-15T12:32:07;0.10;93.80
26707;DHT22;14319;49.422;10.934;2024-01-15T12:34:08;0.20;93.40
26707;DHT22;14319;49.422;10.934;2024-01-15T12:36:09;0.00;93.40
26707;DHT22;14319;49.422;10.934;2024-01-15T12:38:10;0.00;92.40
26707;DHT22;14319;49.422;10.934;2024-01-15T12:40:12;0.00;92.80
26707;DHT22;14319;49.422;10.934;2024-01-15T12:42:16;0.10;94.50
26707;DHT22;14319;49.422;10.934;2024-01-15T12:44:17;0.30;93.30